Date,TemperatureHighF,TemperatureAvgF,TemperatureLowF,DewpointHighF,DewpointAvgF,DewpointLowF,HumidityHigh,HumidityAvg,HumidityLow,PressureMaxIn,PressureMinIn,WindSpeedMaxMPH,WindSpeedAvgMPH,GustSpeedMaxMPH,PrecipitationSumIn
2013-3-1,38,24,14,13,9,4,72,54,31,30.55,30.29,3,1,22,0.01
2013-3-2,47,26,6,19,10,0,80,55,26,30.77,30.10,2,1,16,0.00
2013-3-3,43,32,22,23,14,6,84,52,26,30.08,29.69,4,2,17,0.00
2013-3-4,36,22,-1,23,14,-9,87,72,47,30.36,29.66,3,1,13,0.20
2013-3-5,45,21,-1,6,-1,-9,72,42,15,30.73,30.24,2,1,20,0.06
2013-3-6,47,26,5,13,5,-4,71,45,19,30.52,29.85,3,1,14,0.00
2013-3-7,48,27,9,16,4,-4,74,46,11,30.25,29.85,3,1,19,0.00
2013-3-8,45,26,11,24,14,4,88,66,24,30.14,29.45,2,0,12,0.00
2013-3-9,29,20,7,20,15,2,84,79,62,30.22,29.53,3,0,10,0.00
2013-3-10,38,16,-4,13,2,-11,76,58,30,30.61,30.12,3,1,17,0.43
2013-3-11,42,27,10,15,7,-100,72,45,26,30.32,29.99,3,2,20,0.01
2013-3-12,42,30,20,19,14,10,68,52,30,30.35,29.99,3,1,18,0.00
2013-3-13,49,31,17,20,12,8,73,48,20,30.53,30.27,2,0,14,0.00
2013-3-14,53,34,19,20,12,5,69,44,15,30.62,30.17,3,1,13,0.00
2013-3-15,55,38,24,19,14,11,66,42,19,30.32,29.81,4,2,18,0.00
2013-3-16,39,30,22,31,21,14,84,69,54,30.00,29.80,2,0,13,0.05
2013-3-17,37,25,17,23,14,-100,84,68,38,29.92,29.65,3,1,17,0.16
2013-3-18,28,22,16,14,5,-1,72,50,34,30.14,29.83,3,2,17,0.03
2013-3-19,39,26,10,6,-2,-17,52,31,11,30.39,30.03,3,1,17,0.00
2013-3-20,42,26,5,21,7,-13,71,47,21,30.52,29.75,4,1,18,0.00
2013-3-21,38,26,13,24,17,-100,87,72,55,29.98,29.57,4,1,13,0.12
2013-3-22,34,20,3,14,4,-5,73,52,26,30.14,29.69,4,2,21,0.08
2013-3-23,17,9,-10,8,0,-19,76,69,51,30.62,29.74,5,1,17,0.00
2013-3-24,17,3,-11,2,-8,-19,69,59,40,30.62,30.39,2,1,13,0.00
2013-3-25,30,9,-14,4,-11,-23,68,45,16,30.78,30.40,3,1,20,0.19
2013-3-26,43,27,-1,16,8,-9,73,46,22,30.42,29.88,3,1,19,0.04
2013-3-27,46,33,19,18,12,7,66,45,22,30.16,29.86,2,1,13,0.00
2013-3-28,49,30,14,22,12,6,72,50,22,30.39,30.08,3,0,14,0.00
2013-3-29,47,32,20,23,16,11,74,54,26,30.35,30.10,2,1,17,0.00
2013-3-30,48,34,24,22,17,12,75,52,23,30.19,30.01,3,1,24,0.00
2013-3-31,50,33,16,20,12,6,75,47,17,30.32,29.97,2,0,16,0.00